Time;durP1;ratioP1;P1;durP2;ratioP2;P2;SDS_P1;SDS_P2;PMS_P1;PMS_P2;Temp;Humidity;BMP_temperature;BMP_pressure;BME280_temperature;BME280_humidity;BME280_pressure;Samples;Min_cycle;Max_cycle;Signal;HPM_P1;HPM_P2
2022/03/10 00:00:09;;;;;;;10.33;5.83;;;5.20;87.30;;;;;;4945250;28;20188;-82
2022/03/10 00:02:44;;;;;;;8.87;5.90;;;5.10;88.30;;;;;;4943519;28;20176;-82
2022/03/10 00:05:15;;;;;;;8.53;6.17;;;5.10;88.40;;;;;;4947337;28;20195;-82
2022/03/10 00:07:41;;;;;;;9.37;5.50;;;5.10;89.10;;;;;;4958488;28;20202;-82
2022/03/10 00:10:08;;;;;;;9.43;6.17;;;5.00;89.80;;;;;;4946544;29;20589;-82
2022/03/10 00:12:34;;;;;;;8.27;5.97;;;5.00;90.00;;;;;;4943247;28;20248;-81
2022/03/10 00:15:03;;;;;;;8.23;5.73;;;5.00;90.60;;;;;;4949105;28;20222;-82
2022/03/10 00:17:29;;;;;;;8.80;6.07;;;5.00;90.40;;;;;;4948848;28;20175;-80
2022/03/10 00:19:55;;;;;;;8.70;5.90;;;5.00;90.60;;;;;;4952502;28;20186;-82
2022/03/10 00:22:20;;;;;;;9.07;5.93;;;5.00;91.00;;;;;;4950889;28;20187;-83
2022/03/10 00:24:46;;;;;;;9.10;5.97;;;5.00;91.10;;;;;;4946103;29;20204;-83
2022/03/10 00:27:12;;;;;;;8.27;5.80;;;4.90;91.10;;;;;;4951108;28;20176;-82
2022/03/10 00:29:37;;;;;;;8.93;6.10;;;4.90;91.30;;;;;;4946034;29;20189;-82
2022/03/10 00:32:03;;;;;;;9.73;6.00;;;4.80;91.50;;;;;;4948510;28;20179;-81
2022/03/10 00:34:30;;;;;;;16.60;9.63;;;4.80;91.90;;;;;;4949266;28;20238;-82
2022/03/10 00:36:56;;;;;;;9.80;6.90;;;4.70;92.20;;;;;;4950073;28;20176;-83
2022/03/10 00:39:22;;;;;;;10.33;6.63;;;4.70;92.60;;;;;;4952292;28;20195;-82
2022/03/10 00:41:47;;;;;;;10.93;6.20;;;4.60;92.90;;;;;;4951918;29;20264;-83
2022/03/10 00:44:13;;;;;;;8.57;5.97;;;4.60;93.20;;;;;;4940278;29;20342;-84
2022/03/10 00:46:39;;;;;;;8.47;6.03;;;4.50;93.60;;;;;;4954268;28;20200;-82
2022/03/10 00:49:05;;;;;;;12.43;6.57;;;4.60;94.00;;;;;;4951956;29;20268;-82
2022/03/10 00:51:31;;;;;;;8.77;6.10;;;4.60;94.10;;;;;;4948428;28;20245;-82
2022/03/10 00:53:56;;;;;;;8.93;6.63;;;4.50;94.10;;;;;;4950967;28;20239;-82
2022/03/10 00:56:22;;;;;;;9.33;6.07;;;4.60;94.70;;;;;;4947463;29;20259;-82
2022/03/10 00:58:48;;;;;;;10.63;7.00;;;4.60;95.50;;;;;;4942137;28;20215;-83
2022/03/10 01:01:13;;;;;;;11.40;6.60;;;4.60;95.20;;;;;;4947224;29;20193;-81
2022/03/10 01:03:39;;;;;;;9.63;6.67;;;4.50;95.00;;;;;;4941508;28;20257;-82
2022/03/10 01:06:05;;;;;;;8.67;6.70;;;4.50;95.50;;;;;;4949517;29;20188;-82
2022/03/10 01:08:30;;;;;;;12.93;6.80;;;4.50;96.00;;;;;;4954297;28;20251;-81
2022/03/10 01:10:56;;;;;;;10.73;7.03;;;4.50;95.60;;;;;;4956024;28;20190;-82
2022/03/10 01:13:22;;;;;;;8.97;6.40;;;4.30;96.00;;;;;;4958305;28;20172;-81
2022/03/10 01:15:48;;;;;;;10.17;6.53;;;4.30;96.60;;;;;;4946332;28;20235;-82
2022/03/10 01:18:15;;;;;;;9.07;6.83;;;4.20;96.90;;;;;;4951388;28;20204;-81
2022/03/10 01:20:41;;;;;;;10.33;7.00;;;4.10;97.00;;;;;;4956178;28;20187;-80
2022/03/10 01:23:09;;;;;;;9.60;6.77;;;4.20;97.40;;;;;;4960468;28;20226;-81
2022/03/10 01:25:34;;;;;;;10.40;7.00;;;4.10;97.50;;;;;;4947861;29;20177;-82
2022/03/10 01:28:00;;;;;;;9.30;6.23;;;4.10;97.70;;;;;;4943639;28;20267;-81
2022/03/10 01:30:26;;;;;;;14.13;6.93;;;4.10;98.20;;;;;;4958154;28;20172;-81
2022/03/10 01:32:52;;;;;;;9.47;6.30;;;4.10;98.40;;;;;;4959905;28;20315;-81
2022/03/10 01:35:18;;;;;;;9.67;6.93;;;4.10;98.20;;;;;;4952133;28;20176;-82
2022/03/10 01:37:44;;;;;;;10.00;6.77;;;4.10;98.20;;;;;;4951294;28;20223;-82
2022/03/10 01:40:15;;;;;;;10.73;6.77;;;4.10;98.20;;;;;;4950765;28;20178;-82
2022/03/10 01:42:42;;;;;;;11.23;6.40;;;4.10;98.50;;;;;;4948994;29;20267;-82
2022/03/10 01:45:10;;;;;;;14.03;7.20;;;4.10;98.90;;;;;;4931732;29;20366;-82
2022/03/10 01:47:36;;;;;;;11.57;7.30;;;4.00;99.00;;;;;;4948815;28;20223;-82
2022/03/10 01:50:03;;;;;;;11.53;7.23;;;4.00;99.20;;;;;;4954467;28;20327;-82
2022/03/10 01:52:29;;;;;;;10.30;6.90;;;3.90;99.30;;;;;;4956890;28;20164;-82
2022/03/10 01:54:56;;;;;;;12.63;7.83;;;3.90;99.60;;;;;;4956703;28;20188;-81
2022/03/10 01:57:23;;;;;;;9.50;6.90;;;3.80;99.70;;;;;;4957177;28;20203;-79
2022/03/10 01:59:49;;;;;;;10.60;6.80;;;3.90;99.90;;;;;;4956379;28;20199;-82
2022/03/10 02:02:15;;;;;;;10.20;6.97;;;4.00;99.90;;;;;;4956870;28;20175;-81
2022/03/10 02:04:41;;;;;;;10.93;6.33;;;3.90;99.90;;;;;;4956326;28;20306;-80
2022/03/10 02:10:16;;;;;;;11.40;7.13;;;3.90;99.90;;;;;;4956208;28;20156;-81
2022/03/10 02:12:38;;;;;;;8.83;6.70;;;3.90;99.90;;;;;;4970907;28;20208;-79
2022/03/10 02:18:07;;;;;;;10.90;7.23;;;3.90;99.90;;;;;;4963013;28;20228;-80
2022/03/10 02:20:34;;;;;;;11.57;7.27;;;3.80;99.90;;;;;;4954880;28;20248;-81
2022/03/10 02:23:00;;;;;;;12.50;7.40;;;3.90;99.90;;;;;;4957127;28;20200;-81
2022/03/10 02:25:27;;;;;;;12.03;7.13;;;3.80;99.90;;;;;;4953997;29;20237;-81
2022/03/10 02:27:55;;;;;;;10.70;7.03;;;3.70;99.90;;;;;;4946823;28;20227;-80
2022/03/10 02:30:23;;;;;;;13.80;7.50;;;3.70;99.90;;;;;;4955995;28;20196;-81
2022/03/10 02:32:49;;;;;;;8.53;6.63;;;3.70;99.90;;;;;;4957316;28;20199;-81
2022/03/10 02:35:16;;;;;;;10.03;7.07;;;3.60;99.90;;;;;;4954477;28;20300;-81
2022/03/10 02:37:43;;;;;;;13.57;7.60;;;3.60;99.90;;;;;;4952949;29;20199;-81
2022/03/10 02:40:10;;;;;;;11.47;7.63;;;3.60;99.90;;;;;;4949448;28;20186;-81
2022/03/10 02:42:36;;;;;;;14.60;7.93;;;3.60;99.90;;;;;;4953661;29;20173;-80
2022/03/10 02:45:02;;;;;;;13.10;7.23;;;3.50;99.90;;;;;;4943967;29;20177;-82
2022/03/10 02:47:28;;;;;;;13.57;7.60;;;3.50;99.90;;;;;;4943802;29;20248;-80
2022/03/10 02:49:54;;;;;;;12.77;7.50;;;3.50;99.90;;;;;;4944585;28;20180;-79
2022/03/10 02:52:20;;;;;;;11.77;7.90;;;3.50;99.90;;;;;;4959073;28;20176;-80
2022/03/10 02:54:46;;;;;;;12.07;7.70;;;3.40;99.90;;;;;;4961511;28;20244;-82
2022/03/10 02:57:12;;;;;;;12.43;7.80;;;3.40;99.90;;;;;;4954808;29;20260;-81
2022/03/10 02:59:38;;;;;;;14.77;8.67;;;3.40;99.90;;;;;;4961109;28;20231;-79
2022/03/10 03:02:06;;;;;;;12.17;7.87;;;3.30;99.90;;;;;;4964468;28;20195;-80
2022/03/10 03:04:32;;;;;;;13.17;7.73;;;3.30;99.90;;;;;;4964319;28;20200;-79
2022/03/10 03:06:58;;;;;;;14.83;8.50;;;3.30;99.90;;;;;;4961019;28;20231;-78
2022/03/10 03:09:24;;;;;;;10.87;7.67;;;3.20;99.90;;;;;;4944018;29;20192;-79
2022/03/10 03:11:50;;;;;;;11.13;8.03;;;3.20;99.90;;;;;;4943231;29;20207;-82
2022/03/10 03:14:15;;;;;;;11.30;7.73;;;3.20;99.90;;;;;;4956695;28;20208;-82
2022/03/10 03:16:41;;;;;;;12.67;7.87;;;3.20;99.90;;;;;;4955631;29;20169;-82
2022/03/10 03:19:07;;;;;;;14.57;7.57;;;3.20;99.90;;;;;;4951591;28;20184;-81
2022/03/10 03:21:33;;;;;;;11.20;8.13;;;3.20;99.90;;;;;;4959023;28;20187;-80
2022/03/10 03:23:58;;;;;;;12.23;7.93;;;3.10;99.90;;;;;;4960047;28;20204;-81
2022/03/10 03:26:24;;;;;;;9.47;7.13;;;3.10;99.90;;;;;;4954546;29;20231;-82
2022/03/10 03:28:51;;;;;;;11.47;7.40;;;3.10;99.90;;;;;;4948272;28;20196;-80
2022/03/10 03:31:16;;;;;;;12.00;7.80;;;3.10;99.90;;;;;;4959966;28;20181;-78
2022/03/10 03:33:42;;;;;;;10.13;7.30;;;3.20;99.90;;;;;;4957093;28;20183;-78
2022/03/10 03:36:08;;;;;;;12.37;7.37;;;3.10;99.90;;;;;;4963457;28;20180;-77
2022/03/10 03:38:34;;;;;;;11.60;7.57;;;3.10;99.90;;;;;;4962673;28;20210;-79
2022/03/10 03:41:00;;;;;;;12.23;7.20;;;3.10;99.90;;;;;;4962563;28;20191;-76
2022/03/10 03:43:26;;;;;;;9.87;7.13;;;3.10;99.90;;;;;;4962192;28;20260;-78
2022/03/10 03:45:51;;;;;;;11.50;7.50;;;3.00;99.90;;;;;;4961841;28;20201;-79
2022/03/10 03:48:17;;;;;;;10.93;7.57;;;3.10;99.90;;;;;;4960113;28;20271;-81
2022/03/10 03:50:43;;;;;;;13.97;7.57;;;3.10;99.90;;;;;;4959520;28;20243;-81
2022/03/10 03:53:09;;;;;;;12.13;7.90;;;3.10;99.90;;;;;;4952025;28;20206;-81
2022/03/10 03:55:34;;;;;;;12.20;7.90;;;3.10;99.90;;;;;;4952824;28;20195;-79
2022/03/10 03:58:00;;;;;;;13.40;7.60;;;3.00;99.90;;;;;;4955143;28;20208;-81
2022/03/10 04:00:26;;;;;;;13.60;7.20;;;3.00;99.90;;;;;;4958464;28;20183;-80
2022/03/10 04:02:53;;;;;;;10.77;7.47;;;3.00;99.90;;;;;;4951440;29;20185;-81
2022/03/10 04:05:19;;;;;;;10.70;7.60;;;3.00;99.90;;;;;;4945737;29;20172;-81
2022/03/10 04:07:44;;;;;;;11.00;7.37;;;2.90;99.90;;;;;;4937289;28;20222;-81
2022/03/10 04:10:10;;;;;;;10.83;7.50;;;2.90;99.90;;;;;;4952765;28;20243;-80
2022/03/10 04:12:36;;;;;;;10.87;7.00;;;2.90;99.90;;;;;;4951248;28;20572;-79
2022/03/10 04:15:03;;;;;;;11.60;7.90;;;2.90;99.90;;;;;;4953197;28;20180;-81
2022/03/10 04:17:29;;;;;;;10.73;7.50;;;2.90;99.90;;;;;;4950831;28;20216;-81
2022/03/10 04:19:54;;;;;;;9.47;7.20;;;2.90;99.90;;;;;;4952085;28;20176;-80
2022/03/10 04:22:20;;;;;;;11.93;8.03;;;2.80;99.90;;;;;;4952677;28;20191;-80
2022/03/10 04:24:47;;;;;;;13.60;8.17;;;2.80;99.90;;;;;;4952017;28;20203;-80
2022/03/10 04:27:13;;;;;;;10.33;7.20;;;2.80;99.90;;;;;;4952368;28;20176;-81
2022/03/10 04:29:38;;;;;;;11.70;7.20;;;2.80;99.90;;;;;;4955035;28;20229;-80
2022/03/10 04:32:05;;;;;;;14.13;7.90;;;2.80;99.90;;;;;;4957372;28;20263;-79
2022/03/10 04:34:30;;;;;;;11.53;7.70;;;2.80;99.90;;;;;;4950035;29;20177;-79
2022/03/10 04:36:56;;;;;;;12.47;7.87;;;2.70;99.90;;;;;;4945585;28;20180;-80
2022/03/10 04:39:22;;;;;;;11.37;7.77;;;2.80;99.90;;;;;;4950969;28;20204;-80
2022/03/10 04:41:47;;;;;;;10.30;7.27;;;2.70;99.90;;;;;;4949001;29;20252;-80
2022/03/10 04:44:13;;;;;;;12.23;8.00;;;2.80;99.90;;;;;;4948826;28;20299;-79
2022/03/10 04:46:39;;;;;;;13.97;7.87;;;2.70;99.90;;;;;;4951754;28;20204;-81
2022/03/10 04:49:05;;;;;;;10.67;7.83;;;2.70;99.90;;;;;;4945914;28;20207;-81
2022/03/10 04:51:31;;;;;;;11.93;7.97;;;2.70;99.90;;;;;;4941628;29;20189;-80
2022/03/10 04:53:57;;;;;;;14.03;8.17;;;2.70;99.90;;;;;;4938619;28;20195;-80
2022/03/10 04:56:22;;;;;;;12.43;7.80;;;2.60;99.90;;;;;;4945560;28;20200;-80
2022/03/10 04:58:48;;;;;;;12.47;8.10;;;2.60;99.90;;;;;;4947700;28;20250;-80
2022/03/10 05:01:14;;;;;;;13.37;8.37;;;2.60;99.90;;;;;;4958807;28;20647;-81
2022/03/10 05:03:41;;;;;;;12.80;8.20;;;2.60;99.90;;;;;;4953660;28;20199;-81
2022/03/10 05:06:07;;;;;;;12.57;8.20;;;2.60;99.90;;;;;;4949509;28;20207;-81
2022/03/10 05:08:34;;;;;;;11.93;8.17;;;2.50;99.90;;;;;;4954989;28;20215;-81
2022/03/10 05:10:59;;;;;;;12.00;8.53;;;2.50;99.90;;;;;;4950264;28;20171;-81
2022/03/10 05:13:25;;;;;;;12.10;8.37;;;2.60;99.90;;;;;;4946344;29;20537;-81
2022/03/10 05:15:55;;;;;;;14.07;8.27;;;2.50;99.90;;;;;;4941660;28;20230;-81
2022/03/10 05:18:22;;;;;;;12.20;8.17;;;2.50;99.90;;;;;;4948515;28;20211;-81
2022/03/10 05:20:48;;;;;;;16.10;8.63;;;2.60;99.90;;;;;;4946182;29;20191;-81
2022/03/10 05:23:16;;;;;;;14.63;9.07;;;2.50;99.90;;;;;;4929330;29;20240;-81
2022/03/10 05:25:58;;;;;;;14.20;8.57;;;2.50;99.90;;;;;;4929666;29;20204;-81
2022/03/10 05:28:24;;;;;;;15.27;9.03;;;2.50;99.90;;;;;;4937710;28;20196;-81
2022/03/10 05:30:50;;;;;;;13.63;8.07;;;2.50;99.90;;;;;;4944432;29;20212;-79
2022/03/10 05:33:15;;;;;;;13.43;8.67;;;2.50;99.90;;;;;;4944365;28;20200;-79
2022/03/10 05:35:41;;;;;;;11.93;8.57;;;2.40;99.90;;;;;;4947385;28;20220;-80
2022/03/10 05:38:07;;;;;;;12.57;8.60;;;2.40;99.90;;;;;;4946860;28;20215;-80
2022/03/10 05:40:33;;;;;;;13.87;8.60;;;2.40;99.90;;;;;;4944149;29;20179;-81
2022/03/10 05:42:59;;;;;;;13.00;8.23;;;2.40;99.90;;;;;;4939967;28;20187;-80
2022/03/10 05:45:25;;;;;;;17.43;9.00;;;2.40;99.90;;;;;;4947144;28;20605;-80
2022/03/10 05:47:53;;;;;;;12.83;8.33;;;2.40;99.90;;;;;;4944005;28;20212;-79
2022/03/10 05:50:20;;;;;;;13.77;8.83;;;2.50;99.90;;;;;;4945970;28;20292;-80
2022/03/10 05:52:46;;;;;;;11.87;8.77;;;2.40;99.90;;;;;;4946460;28;20215;-80
2022/03/10 05:55:13;;;;;;;15.10;9.00;;;2.50;99.90;;;;;;4942896;28;20176;-80
2022/03/10 05:57:43;;;;;;;13.27;8.67;;;2.50;99.90;;;;;;4942536;29;20196;-81
2022/03/10 06:00:11;;;;;;;16.93;9.10;;;2.60;99.90;;;;;;4939075;28;20177;-82
2022/03/10 06:02:39;;;;;;;13.57;9.53;;;2.50;99.90;;;;;;4943265;29;20232;-82
2022/03/10 06:05:05;;;;;;;15.97;10.03;;;2.40;99.90;;;;;;4933463;28;20211;-81
2022/03/10 06:07:35;;;;;;;17.10;9.90;;;2.50;99.90;;;;;;4946157;28;20183;-82
2022/03/10 06:10:04;;;;;;;17.17;9.63;;;2.60;99.90;;;;;;4944845;28;20169;-81
2022/03/10 06:12:30;;;;;;;18.73;9.63;;;2.60;99.90;;;;;;4947987;28;20259;-82
2022/03/10 06:15:01;;;;;;;16.73;9.63;;;2.60;99.90;;;;;;4948296;28;20184;-81
2022/03/10 06:17:27;;;;;;;20.17;9.80;;;2.70;99.90;;;;;;4948077;28;20279;-81
2022/03/10 06:19:54;;;;;;;18.67;9.83;;;2.70;99.90;;;;;;4945631;28;20584;-81
2022/03/10 06:22:32;;;;;;;18.90;9.83;;;2.70;99.90;;;;;;4947764;29;20176;-80
2022/03/10 06:24:59;;;;;;;21.43;10.23;;;2.80;99.90;;;;;;4949508;28;20230;-81
2022/03/10 06:27:26;;;;;;;20.73;10.07;;;2.80;99.90;;;;;;4959861;28;20592;-81
2022/03/10 06:29:53;;;;;;;15.97;9.90;;;2.80;99.90;;;;;;4956470;28;20183;-81
2022/03/10 06:32:20;;;;;;;19.00;9.87;;;2.70;99.90;;;;;;4972303;28;20238;-81
2022/03/10 06:34:48;;;;;;;21.13;10.70;;;2.70;99.90;;;;;;4945406;28;20188;-81
2022/03/10 06:37:15;;;;;;;18.43;10.30;;;2.70;99.90;;;;;;4945689;29;20164;-80
2022/03/10 06:39:41;;;;;;;17.73;9.60;;;2.80;99.90;;;;;;4945365;29;20236;-81
2022/03/10 06:42:08;;;;;;;20.87;9.90;;;2.80;99.90;;;;;;4958852;28;20176;-81
2022/03/10 06:44:36;;;;;;;21.83;9.80;;;2.80;99.90;;;;;;4958800;28;20220;-81
2022/03/10 06:47:04;;;;;;;18.27;10.07;;;2.80;99.90;;;;;;4950341;28;20663;-79
2022/03/10 06:49:30;;;;;;;14.63;9.97;;;2.90;99.90;;;;;;4945238;29;20192;-80
2022/03/10 06:51:56;;;;;;;18.63;10.60;;;3.00;99.90;;;;;;4933097;29;20177;-80
2022/03/10 06:54:22;;;;;;;22.33;9.67;;;3.00;99.90;;;;;;4960741;28;20175;-81
2022/03/10 06:56:48;;;;;;;18.47;9.90;;;3.00;99.90;;;;;;4981287;28;20238;-82
2022/03/10 06:59:14;;;;;;;24.50;10.23;;;3.00;99.90;;;;;;4949762;28;20540;-82
2022/03/10 07:01:40;;;;;;;18.80;10.23;;;3.00;99.90;;;;;;4957406;28;20187;-82
2022/03/10 07:04:06;;;;;;;19.77;10.40;;;3.00;99.90;;;;;;4973832;28;20223;-81
2022/03/10 07:06:32;;;;;;;20.13;10.60;;;3.10;99.90;;;;;;4954607;28;20180;-81
2022/03/10 07:08:59;;;;;;;16.13;9.93;;;3.10;99.90;;;;;;4970969;28;20203;-83
2022/03/10 07:11:25;;;;;;;22.73;11.00;;;3.20;99.90;;;;;;4974996;28;20243;-81
2022/03/10 07:13:52;;;;;;;18.87;11.17;;;3.40;99.90;;;;;;4968779;28;20282;-81
2022/03/10 07:16:19;;;;;;;21.57;11.03;;;3.40;99.90;;;;;;4947247;28;20185;-81
2022/03/10 07:18:50;;;;;;;16.97;9.73;;;3.40;99.90;;;;;;4962255;28;20214;-81
2022/03/10 07:21:22;;;;;;;18.07;9.23;;;3.40;99.90;;;;;;4958818;28;20210;-81
2022/03/10 07:23:50;;;;;;;17.57;10.20;;;3.40;99.90;;;;;;4965029;28;20338;-81
2022/03/10 07:26:48;;;;;;;19.37;10.30;;;3.40;99.90;;;;;;4965256;28;20182;-81
2022/03/10 07:29:14;;;;;;;20.30;10.87;;;3.60;99.90;;;;;;4975610;28;20212;-82
2022/03/10 07:31:40;;;;;;;18.77;10.83;;;3.50;99.90;;;;;;4965324;28;20223;-82
2022/03/10 07:34:06;;;;;;;16.80;10.17;;;3.50;99.90;;;;;;4970421;28;20179;-75
2022/03/10 07:36:32;;;;;;;21.23;11.00;;;3.50;99.90;;;;;;4957084;28;20184;-75
2022/03/10 07:38:58;;;;;;;16.23;10.10;;;3.50;99.90;;;;;;4955125;28;20211;-75
2022/03/10 07:41:24;;;;;;;17.93;10.50;;;3.60;99.90;;;;;;4958545;28;20191;-80
2022/03/10 07:43:49;;;;;;;26.73;10.83;;;3.60;99.90;;;;;;4974603;28;20461;-80
2022/03/10 07:46:22;;;;;;;21.37;10.67;;;3.60;99.90;;;;;;4958614;28;20214;-80
2022/03/10 07:48:48;;;;;;;17.97;10.50;;;3.60;99.90;;;;;;4937856;29;20197;-80
2022/03/10 07:51:14;;;;;;;19.90;10.70;;;3.70;99.90;;;;;;4919903;29;20220;-81
2022/03/10 07:53:40;;;;;;;21.13;11.00;;;3.80;99.90;;;;;;4928769;29;20192;-80
2022/03/10 07:56:06;;;;;;;20.53;10.90;;;3.80;99.90;;;;;;4942093;29;20188;-81
2022/03/10 07:58:32;;;;;;;21.13;11.17;;;3.90;99.90;;;;;;4925958;29;20240;-81
2022/03/10 08:01:02;;;;;;;20.20;10.33;;;3.90;99.90;;;;;;4944251;28;20191;-80
2022/03/10 08:03:28;;;;;;;20.27;11.60;;;3.90;99.90;;;;;;4951948;28;20195;-81
2022/03/10 08:05:54;;;;;;;24.33;11.67;;;3.90;99.90;;;;;;4953388;28;20641;-80
2022/03/10 08:08:19;;;;;;;22.93;11.17;;;4.00;99.90;;;;;;4934003;28;20687;-80
2022/03/10 08:10:45;;;;;;;20.17;10.57;;;4.10;99.90;;;;;;4946674;28;20205;-81
2022/03/10 08:13:11;;;;;;;20.57;10.70;;;4.10;99.90;;;;;;4965311;28;20177;-81
2022/03/10 08:15:37;;;;;;;17.90;10.53;;;4.10;99.90;;;;;;4928940;29;20174;-80
2022/03/10 08:18:03;;;;;;;19.70;11.00;;;4.20;99.90;;;;;;4933316;29;20208;-81
2022/03/10 08:20:31;;;;;;;19.63;11.00;;;4.20;99.90;;;;;;4933348;29;20284;-81
2022/03/10 08:22:57;;;;;;;20.27;10.90;;;4.20;99.90;;;;;;4939814;29;20185;-82
2022/03/10 08:25:23;;;;;;;15.87;10.87;;;4.30;99.90;;;;;;4924528;29;20178;-80
2022/03/10 08:27:49;;;;;;;19.00;10.47;;;4.40;99.90;;;;;;4937867;28;20207;-81
2022/03/10 08:30:16;;;;;;;19.40;11.07;;;4.40;99.90;;;;;;4946389;28;20200;-81
2022/03/10 08:32:49;;;;;;;17.27;10.47;;;4.50;99.90;;;;;;4948751;28;20169;-80
2022/03/10 08:35:16;;;;;;;21.23;9.80;;;4.50;99.90;;;;;;4948976;28;20183;-79
2022/03/10 08:37:43;;;;;;;20.60;10.47;;;4.60;99.80;;;;;;4970085;28;20203;-80
2022/03/10 08:40:15;;;;;;;15.80;10.00;;;4.60;99.70;;;;;;4937255;28;20549;-80
2022/03/10 08:42:42;;;;;;;15.80;10.43;;;4.70;99.50;;;;;;4940605;28;20176;-80
2022/03/10 08:45:09;;;;;;;18.27;10.43;;;4.70;99.40;;;;;;4956495;28;20208;-80
2022/03/10 08:47:38;;;;;;;22.70;10.77;;;4.80;99.30;;;;;;4964780;28;20278;-81
2022/03/10 08:50:04;;;;;;;16.37;10.27;;;4.80;99.30;;;;;;4980031;28;20184;-80
2022/03/10 08:52:31;;;;;;;16.23;10.13;;;4.90;99.10;;;;;;4967507;28;20186;-80
2022/03/10 09:35:59;;;;;;;15.00;10.07;;;6.10;97.10;;;;;;4982903;28;20206;-79
2022/03/10 09:38:25;;;;;;;15.97;10.17;;;6.30;97.10;;;;;;4971588;28;20290;-78
2022/03/10 09:40:54;;;;;;;18.40;11.37;;;6.30;97.00;;;;;;4959440;28;20192;-79
2022/03/10 09:43:27;;;;;;;14.97;10.07;;;6.40;97.20;;;;;;4965229;28;20203;-81
2022/03/10 09:45:54;;;;;;;15.87;10.17;;;6.50;96.70;;;;;;4966467;28;20269;-78
2022/03/10 09:48:21;;;;;;;18.17;10.60;;;6.60;96.30;;;;;;4962098;28;20199;-79
2022/03/10 09:50:48;;;;;;;20.80;10.93;;;6.70;96.10;;;;;;4963917;28;20175;-79
2022/03/10 09:53:19;;;;;;;18.37;10.07;;;6.80;96.10;;;;;;4959849;28;20268;-77
2022/03/10 09:55:46;;;;;;;20.27;10.40;;;6.80;95.60;;;;;;4962483;28;20186;-77
2022/03/10 09:58:13;;;;;;;18.93;9.90;;;6.90;95.70;;;;;;4956168;28;20207;-78
2022/03/10 10:00:38;;;;;;;22.90;11.03;;;6.90;95.50;;;;;;4964682;28;20183;-78
2022/03/10 10:03:05;;;;;;;15.03;10.23;;;7.00;95.40;;;;;;4966382;28;20205;-77
2022/03/10 10:05:38;;;;;;;21.40;9.77;;;7.20;94.80;;;;;;4962489;28;20196;-77
2022/03/10 10:08:09;;;;;;;18.73;10.80;;;7.20;94.60;;;;;;4965724;28;20203;-77
2022/03/10 10:10:49;;;;;;;16.23;9.70;;;7.30;94.90;;;;;;4968879;28;20237;-78
2022/03/10 10:13:34;;;;;;;16.27;10.53;;;7.40;94.40;;;;;;4974499;28;20175;-76
2022/03/10 10:16:03;;;;;;;18.60;10.70;;;7.40;94.10;;;;;;4983350;28;20168;-76
2022/03/10 10:18:31;;;;;;;17.57;10.60;;;7.50;93.80;;;;;;4972418;28;20214;-79
2022/03/10 10:20:58;;;;;;;19.20;10.57;;;7.70;93.60;;;;;;4979007;28;20206;-76
2022/03/10 10:23:26;;;;;;;19.17;10.27;;;7.80;93.20;;;;;;4967229;28;20200;-79
2022/03/10 10:26:26;;;;;;;20.07;11.33;;;8.10;93.00;;;;;;4975839;28;20207;-77
2022/03/10 10:28:52;;;;;;;17.13;10.37;;;8.50;92.00;;;;;;4975229;28;20255;-77
2022/03/10 10:31:20;;;;;;;14.53;10.40;;;8.80;91.10;;;;;;4975548;28;20196;-76
2022/03/10 10:34:06;;;;;;;17.80;10.93;;;9.20;90.00;;;;;;4964260;28;20188;-76
2022/03/10 10:36:33;;;;;;;19.37;10.67;;;9.30;88.80;;;;;;4962913;28;20196;-76
2022/03/10 10:39:15;;;;;;;18.20;9.93;;;9.60;87.70;;;;;;4967290;28;20211;-74
2022/03/10 10:41:45;;;;;;;16.07;11.27;;;9.80;85.80;;;;;;4980881;28;20175;-76
2022/03/10 10:44:18;;;;;;;17.00;10.80;;;9.80;84.70;;;;;;4967240;28;20208;-75
2022/03/10 10:46:45;;;;;;;16.30;10.70;;;10.00;83.80;;;;;;4985012;28;20188;-78
2022/03/10 10:49:15;;;;;;;18.90;10.87;;;10.30;82.40;;;;;;4969046;28;20217;-82
2022/03/10 10:51:47;;;;;;;15.37;10.30;;;10.60;80.20;;;;;;4973086;28;20167;-77
2022/03/10 10:54:24;;;;;;;19.43;10.60;;;11.10;78.30;;;;;;4971822;28;20186;-78
2022/03/10 10:56:58;;;;;;;21.33;10.37;;;11.30;74.30;;;;;;4969602;28;20185;-77
2022/03/10 10:59:47;;;;;;;16.50;10.30;;;11.40;74.20;;;;;;4984111;28;20231;-77
2022/03/10 11:02:23;;;;;;;16.73;10.43;;;11.40;72.80;;;;;;4969875;28;20179;-80
2022/03/10 11:04:54;;;;;;;13.97;10.40;;;11.40;72.50;;;;;;4956450;28;20662;-79
2022/03/10 11:07:22;;;;;;;15.77;10.93;;;11.30;72.00;;;;;;4956945;28;20195;-80
2022/03/10 11:09:49;;;;;;;16.00;11.07;;;11.40;71.90;;;;;;4962768;28;20654;-82
2022/03/10 11:12:16;;;;;;;24.20;12.13;;;11.70;71.30;;;;;;4958799;28;20191;-80
2022/03/10 11:14:44;;;;;;;19.20;10.27;;;11.90;70.00;;;;;;4961870;28;20195;-80
2022/03/10 11:17:12;;;;;;;15.17;10.70;;;12.20;69.00;;;;;;4959804;28;20183;-82
2022/03/10 11:19:50;;;;;;;26.63;11.10;;;12.30;68.50;;;;;;4960568;28;20203;-79
2022/03/10 11:22:28;;;;;;;17.43;10.90;;;12.50;68.60;;;;;;4956388;28;20183;-80
2022/03/10 11:25:13;;;;;;;18.57;11.33;;;12.90;67.10;;;;;;4956600;28;20215;-79
2022/03/10 11:27:51;;;;;;;16.33;10.80;;;13.10;65.10;;;;;;4953491;28;20258;-79
2022/03/10 11:30:22;;;;;;;18.77;10.67;;;13.20;63.30;;;;;;4946761;28;20186;-77
2022/03/10 11:33:02;;;;;;;14.03;9.40;;;13.30;62.50;;;;;;4954987;28;20279;-78
2022/03/10 11:35:37;;;;;;;19.83;11.13;;;13.40;60.80;;;;;;4964363;28;20193;-79
2022/03/10 11:38:06;;;;;;;16.03;10.47;;;13.30;60.90;;;;;;4979858;23;20219;-79
2022/03/10 11:40:56;;;;;;;13.23;9.80;;;13.30;61.20;;;;;;4979371;28;20171;-79
2022/03/10 11:44:13;;;;;;;;;;;;;;;;;;;;;
2022/03/10 11:47:38;;;;;;;12.97;9.93;;;13.70;60.10;;;;;;4983882;28;20213;-79
2022/03/10 11:50:50;;;;;;;15.40;10.23;;;14.00;57.80;;;;;;4896545;29;20185;-78
2022/03/10 11:54:56;;;;;;;;;;;;;;;;;;;;;
2022/03/10 12:06:04;;;;;;;15.80;9.90;;;14.40;54.40;;;;;;4836887;29;20327;-81
2022/03/10 12:08:37;;;;;;;14.97;9.77;;;14.60;53.60;;;;;;4880597;29;20219;-79
2022/03/10 12:11:13;;;;;;;22.97;10.50;;;14.20;53.80;;;;;;4925569;28;20288;-79
2022/03/10 12:13:45;;;;;;;16.63;9.97;;;13.90;54.50;;;;;;4938917;28;20176;-79
2022/03/10 12:17:03;;;;;;;17.77;10.30;;;13.60;53.70;;;;;;4955039;28;20175;-79
2022/03/10 12:23:54;;;;;;;16.87;7.83;;;12.80;54.40;;;;;;4970369;28;20199;-78
2022/03/10 12:26:47;;;;;;;13.43;8.33;;;12.40;53.20;;;;;;4948068;28;20184;-78
2022/03/10 12:29:19;;;;;;;12.07;7.93;;;12.40;52.00;;;;;;4932638;28;20212;-79
2022/03/10 12:36:11;;;;;;;13.23;7.50;;;12.20;51.50;;;;;;4955670;28;20263;-79
2022/03/10 12:38:57;;;;;;;10.37;7.73;;;11.90;52.60;;;;;;4927336;29;20220;-79
2022/03/10 12:41:37;;;;;;;10.73;7.27;;;12.00;51.20;;;;;;4934848;28;20172;-79
2022/03/10 12:44:11;;;;;;;10.47;7.73;;;11.90;49.70;;;;;;4936749;28;20233;-79
2022/03/10 12:47:10;;;;;;;12.30;7.80;;;11.80;49.20;;;;;;4939359;28;20207;-79
2022/03/10 12:50:09;;;;;;;14.07;7.97;;;11.80;49.90;;;;;;4935883;28;20201;-80
2022/03/10 12:52:57;;;;;;;13.00;7.53;;;11.90;50.20;;;;;;4918928;28;20176;-79
2022/03/10 12:56:12;;;;;;;14.10;7.50;;;12.10;49.00;;;;;;4955767;28;20264;-79
2022/03/10 12:58:53;;;;;;;12.93;7.67;;;12.00;48.30;;;;;;4933014;28;20213;-78
2022/03/10 13:01:30;;;;;;;13.77;7.97;;;12.00;48.90;;;;;;4931005;28;20177;-79
2022/03/10 13:03:59;;;;;;;15.77;8.60;;;12.10;48.40;;;;;;4927637;28;20227;-79
2022/03/10 13:06:34;;;;;;;14.13;8.20;;;11.90;49.70;;;;;;4931850;28;20215;-79
2022/03/10 13:09:08;;;;;;;15.63;8.83;;;11.90;48.60;;;;;;4929653;28;20208;-79
2022/03/10 13:12:09;;;;;;;15.53;8.80;;;11.90;48.60;;;;;;4948249;28;20184;-79
2022/03/10 13:15:16;;;;;;;21.30;9.03;;;11.90;49.00;;;;;;4951607;28;20195;-80
2022/03/10 13:17:44;;;;;;;16.80;9.23;;;11.90;49.00;;;;;;4932567;28;20282;-78
2022/03/10 13:20:20;;;;;;;19.50;9.57;;;11.80;49.30;;;;;;4935798;28;20208;-79
2022/03/10 13:22:50;;;;;;;15.90;8.57;;;11.90;49.40;;;;;;4928657;28;20574;-79
2022/03/10 13:25:17;;;;;;;16.63;9.30;;;11.90;49.10;;;;;;4953570;28;20215;-79
2022/03/10 13:27:48;;;;;;;13.57;8.90;;;11.90;48.90;;;;;;4939562;28;20310;-83
2022/03/10 13:30:28;;;;;;;15.43;8.53;;;11.90;49.20;;;;;;4956107;28;20183;-81
2022/03/10 13:33:02;;;;;;;14.37;9.47;;;11.80;49.60;;;;;;4940540;28;20180;-81
2022/03/10 13:35:34;;;;;;;14.47;9.07;;;11.80;50.40;;;;;;4940672;28;20180;-81
2022/03/10 13:38:01;;;;;;;16.37;9.17;;;11.90;49.60;;;;;;4946694;28;20208;-81
2022/03/10 13:44:30;;;;;;;12.80;8.27;;;12.00;49.00;;;;;;4878648;29;20213;-82
2022/03/10 13:47:29;;;;;;;;;;;;;;;;;;;;;
2022/03/10 13:55:59;;;;;;;12.47;8.37;;;11.90;48.30;;;;;;4997955;28;20210;-84
2022/03/10 14:26:16;;;;;;;12.37;8.30;;;12.10;48.90;;;;;;4998997;28;20203;-84
2022/03/10 14:30:22;;;;;;;12.20;7.93;;;12.00;49.10;;;;;;5008600;28;20205;-83
2022/03/10 14:32:49;;;;;;;13.47;8.23;;;12.10;48.50;;;;;;4984250;28;20217;-83
2022/03/10 14:35:15;;;;;;;15.93;8.87;;;13.90;47.30;;;;;;4976685;28;20303;-82
2022/03/10 14:37:41;;;;;;;13.90;8.20;;;15.00;46.10;;;;;;4979933;28;20191;-82
2022/03/10 14:40:11;;;;;;;13.20;8.43;;;16.10;43.70;;;;;;4980878;28;20189;-83
2022/03/10 14:42:37;;;;;;;15.00;8.93;;;16.20;42.40;;;;;;4974082;28;20179;-83